createdAt,value
2022-08-14T00:04:00.090Z,96128.00
2022-08-14T00:08:14.290Z,96131.00
2022-08-14T00:12:24.415Z,96122.00
2022-08-14T00:16:40.579Z,96127.00
2022-08-14T00:20:48.152Z,96123.00
2022-08-14T00:24:52.801Z,96122.00
2022-08-14T00:28:56.100Z,96115.00
2022-08-14T00:33:00.750Z,96110.00
2022-08-14T00:37:06.086Z,96114.00
2022-08-14T00:41:12.614Z,96114.00
2022-08-14T00:45:17.877Z,96100.00
2022-08-14T00:49:23.951Z,96102.00
2022-08-14T00:53:28.421Z,96106.00
2022-08-14T00:57:36.950Z,96097.00
2022-08-14T01:01:43.374Z,96093.00
2022-08-14T01:05:51.675Z,96091.00
2022-08-14T01:09:57.309Z,96089.00
2022-08-14T01:14:05.005Z,96091.00
2022-08-14T01:18:45.095Z,96088.00
2022-08-14T01:23:02.545Z,96082.00
2022-08-14T01:27:08.471Z,96083.00
2022-08-14T01:31:15.693Z,96088.00
2022-08-14T01:36:03.587Z,96087.00
2022-08-14T01:39:46.632Z,96086.00
2022-08-14T01:43:56.042Z,96084.00
2022-08-14T01:48:03.467Z,96073.00
2022-08-14T01:52:33.680Z,96076.00
2022-08-14T01:56:39.369Z,96071.00
2022-08-14T02:00:43.110Z,96070.00
2022-08-14T02:04:57.034Z,96058.00
2022-08-14T02:09:09.132Z,96054.00
2022-08-14T02:13:23.816Z,96043.00
2022-08-14T02:17:27.846Z,96044.00
2022-08-14T02:21:43.180Z,96029.00
2022-08-14T02:25:54.366Z,96030.00
2022-08-14T02:30:02.126Z,96030.00
2022-08-14T02:34:19.893Z,96029.00
2022-08-14T02:38:29.352Z,96027.00
2022-08-14T02:42:37.132Z,96025.00
2022-08-14T02:46:44.844Z,96028.00
2022-08-14T02:50:53.561Z,96019.00
2022-08-14T02:54:57.335Z,96013.00
2022-08-14T02:59:02.051Z,96022.00
2022-08-14T03:03:10.720Z,96016.00
2022-08-14T03:07:17.150Z,96015.00
2022-08-14T03:11:21.117Z,96010.00
2022-08-14T03:15:26.241Z,96011.00
2022-08-14T03:19:31.195Z,96006.00
2022-08-14T03:23:36.351Z,96008.00
2022-08-14T03:27:48.635Z,96010.00
2022-08-14T03:32:02.162Z,96001.00
2022-08-14T03:37:51.459Z,95998.00
2022-08-14T03:40:38.282Z,95992.00
2022-08-14T03:45:25.749Z,95996.00
2022-08-14T03:49:08.689Z,95983.00
2022-08-14T03:53:18.583Z,95978.00
2022-08-14T03:57:22.718Z,95979.00
2022-08-14T04:01:29.485Z,95970.00
2022-08-14T04:05:48.535Z,95970.00
2022-08-14T04:09:54.002Z,95963.00
2022-08-14T04:14:02.273Z,95962.00
2022-08-14T04:18:09.427Z,95949.00
2022-08-14T04:22:16.641Z,95942.00
2022-08-14T04:26:27.115Z,95946.00
2022-08-14T04:30:46.122Z,95939.00
2022-08-14T04:34:52.209Z,95940.00
2022-08-14T04:39:13.102Z,95949.00
2022-08-14T04:43:40.081Z,95947.00
2022-08-14T04:48:03.248Z,95943.00
2022-08-14T04:52:15.412Z,95945.00
2022-08-14T04:56:30.577Z,95944.00
2022-08-14T05:00:40.524Z,95950.00
2022-08-14T05:04:45.171Z,95943.00
2022-08-14T05:08:57.291Z,95931.00
2022-08-14T05:13:13.844Z,95916.00
2022-08-14T05:17:19.321Z,95921.00
2022-08-14T05:22:00.463Z,95915.00
2022-08-14T05:25:51.559Z,95917.00
2022-08-14T05:29:57.428Z,95921.00
2022-08-14T05:34:02.262Z,95920.00
2022-08-14T05:38:10.796Z,95922.00
2022-08-14T05:42:38.325Z,95916.00
2022-08-14T05:46:41.663Z,95912.00
2022-08-14T05:50:47.594Z,95916.00
2022-08-14T05:54:52.545Z,95917.00
2022-08-14T05:58:57.378Z,95916.00
2022-08-14T06:03:06.933Z,95917.00
2022-08-14T06:07:11.904Z,95916.00
2022-08-14T06:11:27.893Z,95916.00
2022-08-14T06:15:34.083Z,95916.00
2022-08-14T06:19:37.368Z,95913.00
2022-08-14T06:23:42.010Z,95909.00
2022-08-14T06:27:47.127Z,95903.00
2022-08-14T06:31:54.500Z,95914.00
2022-08-14T06:36:03.716Z,95916.00
2022-08-14T06:40:25.613Z,95917.00
2022-08-14T06:44:33.132Z,95913.00
2022-08-14T06:48:36.609Z,95913.00
2022-08-14T06:52:40.403Z,95913.00
2022-08-14T06:56:57.199Z,95919.00
2022-08-14T07:01:25.005Z,95925.00
2022-08-14T07:05:55.012Z,95930.00
2022-08-14T07:09:59.414Z,95932.00
2022-08-14T07:14:05.706Z,95927.00
2022-08-14T07:18:13.546Z,95923.00
2022-08-14T07:22:20.637Z,95921.00
2022-08-14T07:26:24.069Z,95924.00
2022-08-14T07:30:41.780Z,95919.00
2022-08-14T07:34:45.372Z,95911.00
2022-08-14T07:38:52.385Z,95920.00
2022-08-14T07:42:56.118Z,95927.00
2022-08-14T07:47:00.762Z,95921.00
2022-08-14T07:51:10.776Z,95908.00
2022-08-14T07:55:16.059Z,95909.00
2022-08-14T07:59:26.094Z,95904.00
2022-08-14T08:03:49.625Z,95908.00
2022-08-14T08:07:56.365Z,95910.00
2022-08-14T08:12:00.633Z,95909.00
2022-08-14T08:16:06.722Z,95908.00
2022-08-14T08:20:20.005Z,95905.00
2022-08-14T08:24:35.802Z,95898.00
2022-08-14T08:28:43.660Z,95901.00
2022-08-14T08:32:49.639Z,95896.00
2022-08-14T08:37:05.166Z,95887.00
2022-08-14T08:41:11.444Z,95892.00
2022-08-14T08:45:17.610Z,95893.00
2022-08-14T08:49:22.170Z,95893.00
2022-08-14T08:53:33.758Z,95891.00
2022-08-14T08:57:38.045Z,95892.00
2022-08-14T09:01:41.254Z,95890.00
2022-08-14T09:05:53.856Z,95889.00
2022-08-14T09:10:00.540Z,95886.00
2022-08-14T09:14:05.603Z,95884.00
2022-08-14T09:18:09.952Z,95872.00
2022-08-14T09:22:34.992Z,95865.00
2022-08-14T09:26:39.822Z,95868.00
2022-08-14T09:30:46.471Z,95874.00
2022-08-14T09:34:59.557Z,95879.00
2022-08-14T09:39:14.872Z,95877.00
2022-08-14T09:43:32.587Z,95881.00
2022-08-14T09:47:43.374Z,95880.00
2022-08-14T09:51:58.310Z,95871.00
2022-08-14T09:56:04.374Z,95859.00
2022-08-14T10:00:28.285Z,95840.00
2022-08-14T10:04:39.250Z,95852.00
2022-08-14T10:08:51.166Z,95850.00
2022-08-14T10:12:58.760Z,95854.00
2022-08-14T10:17:06.016Z,95855.00
2022-08-14T10:21:18.290Z,95845.00
2022-08-14T10:25:22.539Z,95844.00
2022-08-14T10:29:34.563Z,95830.00
2022-08-14T10:33:40.817Z,95830.00
2022-08-14T10:38:07.351Z,95827.00
2022-08-14T10:42:16.481Z,95826.00
2022-08-14T10:47:39.944Z,95826.00
2022-08-14T10:50:51.580Z,95827.00
2022-08-14T10:55:08.262Z,95824.00
2022-08-14T10:59:13.462Z,95809.00
2022-08-14T11:03:26.410Z,95808.00
2022-08-14T11:07:41.712Z,95804.00
2022-08-14T11:11:47.770Z,95813.00
2022-08-14T11:16:00.775Z,95802.00
2022-08-14T11:20:06.775Z,95792.00
2022-08-14T11:24:50.479Z,95809.00
2022-08-14T11:28:49.759Z,95790.00
2022-08-14T11:32:54.652Z,95791.00
2022-08-14T11:37:09.688Z,95793.00
2022-08-14T11:41:23.005Z,95791.00
2022-08-14T11:45:34.482Z,95784.00
2022-08-14T11:49:40.504Z,95776.00
2022-08-14T11:53:44.774Z,95771.00
2022-08-14T11:58:01.633Z,95774.00
2022-08-14T12:03:00.248Z,95761.00
2022-08-14T12:06:49.041Z,95758.00
2022-08-14T12:10:58.867Z,95753.00
2022-08-14T12:15:03.620Z,95751.00
2022-08-14T12:19:08.204Z,95747.00
2022-08-14T12:23:23.526Z,95741.00
2022-08-14T12:27:51.780Z,95730.00
2022-08-14T12:32:04.137Z,95723.00
2022-08-14T12:36:21.703Z,95720.00
2022-08-14T12:40:25.366Z,95723.00
2022-08-14T12:44:49.402Z,95708.00
2022-08-14T12:48:55.086Z,95702.00
2022-08-14T12:53:13.999Z,95698.00
2022-08-14T12:57:29.161Z,95691.00
2022-08-14T13:02:03.033Z,95677.00
2022-08-14T13:06:03.184Z,95678.00
2022-08-14T13:10:46.317Z,95665.00
2022-08-14T13:14:33.892Z,95656.00
2022-08-14T13:18:42.209Z,95658.00
2022-08-14T13:22:52.158Z,95660.00
2022-08-14T13:26:59.306Z,95644.00
2022-08-14T13:31:11.819Z,95645.00
2022-08-14T13:35:20.707Z,95650.00
2022-08-14T13:39:30.389Z,95636.00
2022-08-14T13:43:59.320Z,95632.00
2022-08-14T13:48:03.675Z,95630.00
2022-08-14T13:52:48.245Z,95626.00
2022-08-14T13:56:38.961Z,95612.00
2022-08-14T14:00:53.150Z,95612.00
2022-08-14T14:05:02.046Z,95612.00
2022-08-14T14:09:07.727Z,95612.00
2022-08-14T14:13:18.507Z,95602.00
2022-08-14T14:17:24.764Z,95596.00
2022-08-14T14:21:28.803Z,95579.00
2022-08-14T14:25:45.588Z,95575.00
2022-08-14T14:29:55.581Z,95570.00
2022-08-14T14:34:00.931Z,95554.00
2022-08-14T14:38:17.008Z,95568.00
2022-08-14T14:42:31.723Z,95571.00
2022-08-14T14:46:42.045Z,95575.00
2022-08-14T14:50:46.514Z,95576.00
2022-08-14T14:54:50.380Z,95576.00
2022-08-14T14:58:56.038Z,95576.00
2022-08-14T15:03:00.645Z,95569.00
2022-08-14T15:07:04.369Z,95568.00
2022-08-14T15:11:13.728Z,95572.00
2022-08-14T15:15:17.454Z,95568.00
2022-08-14T15:19:23.624Z,95559.00
2022-08-14T15:23:43.861Z,95564.00
2022-08-14T15:27:54.703Z,95560.00
2022-08-14T15:31:58.303Z,95552.00
2022-08-14T15:36:04.486Z,95553.00
2022-08-14T15:40:22.469Z,95553.00
2022-08-14T15:44:29.812Z,95543.00
2022-08-14T15:48:37.454Z,95534.00
2022-08-14T15:52:48.793Z,95531.00
2022-08-14T15:57:00.229Z,95535.00
2022-08-14T16:01:43.698Z,95535.00
2022-08-14T16:05:47.153Z,95537.00
2022-08-14T16:10:11.808Z,95530.00
2022-08-14T16:14:15.644Z,95528.00
2022-08-14T16:18:25.144Z,95524.00
2022-08-14T16:22:57.510Z,95524.00
2022-08-14T16:27:00.252Z,95518.00
2022-08-14T16:31:05.274Z,95513.00
2022-08-14T16:35:13.715Z,95503.00
2022-08-14T16:39:17.418Z,95506.00
2022-08-14T16:43:26.791Z,95505.00
2022-08-14T16:47:32.183Z,95508.00
2022-08-14T16:51:40.746Z,95501.00
2022-08-14T16:55:53.378Z,95502.00
2022-08-14T17:00:00.487Z,95503.00
2022-08-14T17:04:14.846Z,95499.00
2022-08-14T17:08:41.501Z,95496.00
2022-08-14T17:12:51.662Z,95496.00
2022-08-14T17:17:00.370Z,95495.00
2022-08-14T17:21:21.635Z,95490.00
2022-08-14T17:25:31.322Z,95482.00
2022-08-14T17:29:44.573Z,95486.00
2022-08-14T17:34:02.309Z,95477.00
2022-08-14T17:38:38.685Z,95480.00
2022-08-14T17:43:01.614Z,95475.00
2022-08-14T17:47:07.565Z,95484.00
2022-08-14T17:51:14.319Z,95487.00
2022-08-14T17:56:01.274Z,95488.00
2022-08-14T17:59:42.363Z,95484.00
2022-08-14T18:03:53.419Z,95476.00
2022-08-14T18:08:31.564Z,95482.00
2022-08-14T18:12:31.687Z,95483.00
2022-08-14T18:16:36.770Z,95482.00
2022-08-14T18:21:41.153Z,95480.00
2022-08-14T18:25:19.133Z,95490.00
2022-08-14T18:29:26.444Z,95484.00
2022-08-14T18:33:42.335Z,95484.00
2022-08-14T18:37:56.137Z,95483.00
2022-08-14T18:42:49.285Z,95487.00
2022-08-14T18:47:22.353Z,95491.00
2022-08-14T18:51:45.155Z,95487.00
2022-08-14T18:55:53.666Z,95495.00
2022-08-14T18:59:57.750Z,95497.00
2022-08-14T19:04:04.096Z,95495.00
2022-08-14T19:08:26.502Z,95498.00
2022-08-14T19:13:13.072Z,95501.00
2022-08-14T19:17:42.115Z,95498.00
2022-08-14T19:21:56.166Z,95501.00
2022-08-14T19:26:01.156Z,95508.00
2022-08-14T19:30:29.152Z,95509.00
2022-08-14T19:34:52.155Z,95509.00
2022-08-14T19:38:59.432Z,95507.00
2022-08-14T19:43:09.005Z,95507.00
2022-08-14T19:47:13.432Z,95513.00
2022-08-14T19:51:16.941Z,95510.00
2022-08-14T19:55:34.353Z,95508.00
2022-08-14T19:59:57.228Z,95517.00
2022-08-14T20:04:02.584Z,95518.00
2022-08-14T20:09:05.862Z,95507.00
2022-08-14T20:12:35.462Z,95506.00
2022-08-14T20:17:06.031Z,95505.00
2022-08-14T20:21:09.856Z,95506.00
2022-08-14T20:25:16.520Z,95509.00
2022-08-14T20:29:30.363Z,95513.00
2022-08-14T20:33:39.891Z,95510.00
2022-08-14T20:38:00.095Z,95510.00
2022-08-14T20:42:39.715Z,95509.00
2022-08-14T20:47:01.442Z,95498.00
2022-08-14T20:51:23.934Z,95507.00
2022-08-14T20:55:32.603Z,95506.00
2022-08-14T20:59:43.703Z,95505.00
2022-08-14T21:03:57.107Z,95515.00
2022-08-14T21:08:08.422Z,95509.00
2022-08-14T21:12:33.664Z,95507.00
2022-08-14T21:16:45.085Z,95512.00
2022-08-14T21:21:07.680Z,95509.00
2022-08-14T21:25:12.984Z,95515.00
2022-08-14T21:29:18.526Z,95513.00
2022-08-14T21:33:24.723Z,95513.00
2022-08-14T21:37:29.768Z,95519.00
2022-08-14T21:41:41.608Z,95510.00
2022-08-14T21:45:53.483Z,95512.00
2022-08-14T21:49:57.602Z,95515.00
2022-08-14T21:54:04.177Z,95512.00
2022-08-14T21:58:53.210Z,95514.00
2022-08-14T22:02:32.967Z,95511.00
2022-08-14T22:06:39.630Z,95512.00
2022-08-14T22:10:46.779Z,95506.00
2022-08-14T22:14:50.094Z,95512.00
2022-08-14T22:18:54.709Z,95503.00
2022-08-14T22:23:05.962Z,95494.00
2022-08-14T22:27:11.418Z,95487.00
2022-08-14T22:31:22.049Z,95486.00
2022-08-14T22:35:25.719Z,95489.00
2022-08-14T22:40:17.379Z,95481.00
2022-08-14T22:44:05.294Z,95476.00
2022-08-14T22:48:11.343Z,95472.00
2022-08-14T22:52:31.729Z,95471.00
2022-08-14T22:56:36.648Z,95461.00
2022-08-14T23:00:43.989Z,95468.00
2022-08-14T23:04:54.374Z,95467.00
2022-08-14T23:09:02.181Z,95461.00
2022-08-14T23:13:21.986Z,95474.00
2022-08-14T23:17:39.199Z,95463.00
2022-08-14T23:21:46.565Z,95451.00
2022-08-14T23:25:59.446Z,95451.00
2022-08-14T23:30:34.578Z,95453.00
2022-08-14T23:34:47.763Z,95451.00
2022-08-14T23:38:55.541Z,95461.00
2022-08-14T23:43:03.398Z,95465.00
2022-08-14T23:47:12.176Z,95462.00
2022-08-14T23:51:36.279Z,95453.00
2022-08-14T23:55:42.047Z,95463.00
2022-08-14T23:59:54.279Z,95462.00
